NCAR-RAP Real-Time Weather Data

Output produced by METARs form (12 May 2021  12:15 UTC)
found at http://weather.rap.ucar.edu/surface/
 
KHVR 121153Z AUTO 21009KT 10SM CLR 03/02 A3018 RMK AO2 SLP226 60000 T00330022 10078 20022 53006
KHVR 121053Z AUTO 24009KT 10SM CLR 03/02 A3016 RMK AO2 SLP221 T00330017
KHVR 120953Z AUTO 23009KT 10SM CLR 05/02 A3016 RMK AO2 RAE28 SLP217 P0000 T00500022
KHVR 120853Z AUTO 23008KT 10SM -RA SCT120 05/03 A3016 RMK AO2 SLP218 P0000 60000 T00500028 50000
KHVR 120753Z AUTO 22008KT 10SM -RA SCT100 06/03 A3016 RMK AO2 SLP219 P0000 T00560033
KHVR 120653Z AUTO 24006KT 10SM -RA SCT075 BKN100 OVC120 08/04 A3016 RMK AO2 SLP214 P0000 T00780039 401830011
KHVR 120553Z AUTO 23008KT 10SM -RA SCT120 07/03 A3016 RMK AO2 SLP216 P0000 60000 T00720033 10183 20072 51005
KHVR 120453Z AUTO 31007KT 10SM -RA BKN100 OVC110 09/03 A3015 RMK AO2 SLP213 P0000 T00940033
KHVR 120353Z AUTO 33007KT 10SM -RA BKN110 11/03 A3015 RMK AO2 WSHFT 0243 SLP219 P0000 T01060028
KHVR 120303Z AUTO 32009KT 10SM -RA FEW075 SCT095 12/03 A3014 RMK AO2 WSHFT 0243 P0000 T01170028
KHVR 120253Z AUTO 32012KT 10SM -RA BKN080 BKN095 13/02 A3014 RMK AO2 SLP214 P0000 60000 T01280017 53012
KHVR 120153Z AUTO 22014KT 10SM -RA SCT095 13/02 A3012 RMK AO2 RAB36 SLP209 P0000 T01280022
KHVR 120053Z AUTO 00000KT 10SM SCT085 SCT120 16/M01 A3010 RMK AO2 SLP201 T01611011
KHVR 112353Z AUTO 00000KT 10SM BKN110 17/M01 A3010 RMK AO2 SLP201 T01671011 10178 20139 56008